• Join FlightAware (Why Join?)
  • Login
  • US Flag 
09:58AM EDT


 

Airport Tracker/Info


-or-


 

Live Flight TrackerFlight Track Log ✈ N509QS ✈ 17-May-2013 ✈ CYQG - MYNN / NAS

Flight Track Log - Related Links

Times and Time Zones

All times are in EDT time to prevent confusion due to time zone crossing. See the N509QS flight status page for this flight to view local times or setup timezone preferences in your user account.

Time Position Orientation Groundspeed Altitude Reporting Facility
EDT Latitude Longitude Course Direction KTS MPH feet Rate Location/Type
08:04AM 42.2817 -82.9464 63° Northeast 170 196 1,600  Level Cleveland Center
08:05AM 42.3081 -82.8769 63° Northeast 223 257 3,900 2,940 Climbing Cleveland Center
08:06AM 42.2806 -82.7919 114° Southeast 281 323 7,400 3,420 Climbing Cleveland Center
08:08AM 42.1547 -82.5997 131° Southeast 326 375 14,200 3,240 Climbing Cleveland Center
08:09AM 42.0839 -82.4856 130° Southeast 377 434 17,200 3,000 Climbing Cleveland Center
08:10AM 42.0003 -82.3686 134° Southeast 402 463 20,200 2,820 Climbing Cleveland Center
08:11AM 41.9103 -82.2544 137° Southeast 424 488 22,900 2,760 Climbing Cleveland Center
08:12AM 41.8181 -82.1294 135° Southeast 455 524 25,800 2,700 Climbing Cleveland Center
08:13AM 41.7219 -82.0019 135° Southeast 474 545 28,300 2,160 Climbing Cleveland Center
08:14AM 41.6336 -81.8861 136° Southeast 489 563 30,200 1,800 Climbing Cleveland Center
08:15AM 41.5308 -81.7508 135° Southeast 504 580 32,000 1,740 Climbing Cleveland Center
08:16AM 41.4300 -81.6106 134° Southeast 518 596 33,700 1,800 Climbing Cleveland Center
08:17AM 41.3208 -81.4733 137° Southeast 523 602 35,600 1,800 Climbing Cleveland Center
08:18AM 41.1989 -81.3200 137° Southeast 534 615 37,300 1,620 Climbing Cleveland Center
08:19AM 41.0869 -81.2003 141° Southeast 539 620 38,900 1,560 Climbing Cleveland Center
08:20AM 40.9456 -81.1439 163° South 528 608 40,500 1,020 Climbing Cleveland Center
08:21AM 40.8081 -81.0961 165° South 513 590 41,000 240 Climbing Cleveland Center
08:22AM 40.6875 -81.0514 164° South 506 582 41,000  Level Cleveland Center
08:23AM 40.5522 -81.0039 165° South 500 575 41,000  Level Cleveland Center
08:24AM 40.4147 -80.9539 165° South 506 582 41,000  Level Cleveland Center
08:25AM 40.2628 -80.9042 166° South 511 588 41,000  Level Cleveland Center
08:26AM 40.1272 -80.8544 164° South 511 588 41,000 360 Level Cleveland Center
08:27AM 39.9961 -80.7944 161° South 506 582 41,800 900 Climbing Cleveland Center
08:28AM 39.8753 -80.6967 148° Southeast 506 582 42,800 600 Climbing Cleveland Center
08:29AM 39.7586 -80.5992 147° Southeast 501 577 43,000 60 Climbing Cleveland Center
08:31AM 39.5197 -80.4047 148° Southeast 507 583 43,000  Level Washington Center
08:32AM 39.4025 -80.3056 147° Southeast 507 583 43,000  Level Washington Center
08:33AM 39.2875 -80.2122 148° Southeast 507 583 43,000  Level Washington Center
08:34AM 39.1661 -80.1133 148° Southeast 507 583 43,000  Level Washington Center
08:35AM 39.0508 -80.0181 147° Southeast 507 583 43,000  Level Washington Center
08:36AM 38.9189 -79.9167 149° Southeast 502 578 43,000  Level Washington Center
08:37AM 38.7972 -79.8217 149° Southeast 502 578 43,000  Level Washington Center
08:38AM 38.6778 -79.7244 148° Southeast 502 578 43,000  Level Washington Center
08:39AM 38.5700 -79.6386 148° Southeast 507 583 43,000  Level Washington Center
08:40AM 38.4481 -79.5419 148° Southeast 507 583 43,000  Level Washington Center
08:41AM 38.3283 -79.4456 148° Southeast 507 583 43,000  Level Washington Center
08:42AM 38.2103 -79.3522 148° Southeast 507 583 43,000  Level Washington Center
08:43AM 38.0781 -79.2453 148° Southeast 507 583 43,000  Level Washington Center
08:44AM 37.9578 -79.1500 148° Southeast 507 583 43,000  Level Washington Center
08:45AM 37.8261 -79.0936 161° South 495 570 43,000  Level Washington Center
08:46AM 37.6911 -79.0692 172° South 495 570 43,000  Level Washington Center
08:47AM 37.5500 -79.0469 173° South 500 575 43,000  Level Washington Center
08:48AM 37.4108 -79.0250 173° South 506 582 43,000  Level Washington Center
08:49AM 37.2861 -79.0064 173° South 506 582 43,000  Level Washington Center
08:50AM 37.1472 -78.9819 172° South 506 582 43,000  Level Washington Center
08:51AM 37.0081 -78.9600 173° South 506 582 43,000  Level Washington Center
08:52AM 36.8708 -78.9411 174° South 506 582 43,000  Level Washington Center
08:53AM 36.7211 -78.9167 173° South 501 577 43,000  Level Washington Center
08:54AM 36.5861 -78.9031 175° South 496 571 43,000  Level Washington Center
08:55AM 36.4469 -78.8764 171° South 501 577 43,000  Level Washington Center
08:56AM 36.3097 -78.8553 173° South 501 577 43,000  Level Washington Center
08:57AM 36.1728 -78.8342 173° South 501 577 43,000  Level Washington Center
08:58AM 36.0333 -78.8131 173° South 501 577 43,000  Level Washington Center
08:59AM 35.8964 -78.7894 172° South 501 577 43,000  Level Washington Center
09:00AM 35.7642 -78.7356 162° South 501 577 43,000  Level Washington Center
09:01AM 35.6344 -78.6767 160° South 501 577 43,000  Level Washington Center
09:02AM 35.4964 -78.6050 157° South 526 605 43,000  Level Washington Center
09:03AM 35.3789 -78.5497 159° South 517 595 43,000  Level Washington Center
09:04AM 35.2425 -78.4886 160° South 517 595 43,000  Level Washington Center
09:05AM 35.1103 -78.4356 162° South 512 589 43,000  Level Washington Center
09:06AM 34.9794 -78.4108 171° South 495 570 43,000  Level Washington Center
09:07AM 34.8444 -78.3908 173° South 490 564 43,000 -60 Level Washington Center
09:08AM 34.6964 -78.3758 175° South 480 552 42,900 -60 Descending Washington Center
09:09AM 34.5614 -78.3561 173° South 480 552 42,900  Level Washington Center
09:10AM 34.4264 -78.3339 172° South 486 559 42,900  Level Washington Center
09:11AM 34.3692 -78.3244 172° South 491 565 42,900  Level Jacksonville Center
09:12AM 34.2350 -78.3064 174° South 491 565 42,900  Level Jacksonville Center
09:13AM 34.0986 -78.2861 173° South 491 565 42,900  Level Jacksonville Center
09:14AM 33.9581 -78.2658 173° South 501 577 42,900  Level Jacksonville Center
09:15AM 33.8386 -78.2472 173° South 501 577 43,000  Climbing Jacksonville Center
09:16AM 33.7019 -78.2244 172° South 501 577 43,000  Level Jacksonville Center
09:17AM 33.5697 -78.2039 173° South 501 577 43,000  Level Jacksonville Center
09:18AM 33.4356 -78.1836 173° South 496 571 43,000  Level Jacksonville Center
09:19AM 33.3011 -78.1636 173° South 496 571 43,000  Level Jacksonville Center
09:20AM 33.1669 -78.1408 172° South 491 565 43,000 -60 Level Jacksonville Center
09:21AM 33.0306 -78.1208 173° South 491 565 42,900  Descending Jacksonville Center
09:22AM 32.8942 -78.1008 173° South 491 565 43,000  Climbing Jacksonville Center
09:23AM 32.7556 -78.0786 172° South 491 565 43,000  Level Jacksonville Center
09:24AM 32.6192 -78.0611 174° South 497 572 43,000  Level Jacksonville Center
09:25AM 32.4825 -78.0389 172° South 497 572 43,000  Level Jacksonville Center
09:26AM 32.3461 -78.0167 172° South 502 578 43,000 -60 Level Jacksonville Center
09:27AM 32.2097 -77.9994 174° South 502 578 42,900  Descending Jacksonville Center
09:28AM 32.0692 -77.9822 174° South 507 583 43,000  Climbing Jacksonville Center
09:29AM 31.9306 -77.9603 172° South 507 583 43,000  Level Jacksonville Center
09:30AM 31.7900 -77.9433 174° South 507 583 43,000 -60 Level Jacksonville Center
09:31AM 31.6533 -77.9142 170° South 507 583 42,900  Descending Jacksonville Center
09:32AM 31.5128 -77.8997 175° South 507 583 43,000  Climbing Jacksonville Center
09:33AM 31.3744 -77.8806 173° South 507 583 43,000  Level Jacksonville Center
09:34AM 31.2358 -77.8586 172° South 502 578 43,000  Level Jacksonville Center
09:35AM 31.0992 -77.8322 171° South 502 578 43,000 -60 Level Jacksonville Center
09:36AM 30.9586 -77.8156 174° South 507 583 42,900 -60 Descending Jacksonville Center
09:37AM 30.8222 -77.8008 175° South 507 583 42,900  Level Jacksonville Center
09:38AM 30.6836 -77.7769 172° South 502 578 42,900  Level Jacksonville Center
09:39AM 30.5450 -77.7603 174° South 502 578 43,000  Climbing Jacksonville Center
09:40AM 30.3672 -77.7525 178° South 498 573 42,900  Descending Miami Center
09:41AM 30.2108 -77.7464 178° South 505 581 43,000  Climbing Miami Center
09:42AM 30.0733 -77.7381 177° South 505 581 43,000  Level Miami Center
09:43AM 29.9336 -77.7322 178° South 499 574 43,000  Level Miami Center
09:44AM 29.7961 -77.7239 177° South 497 572 43,000  Level Miami Center
09:45AM 29.6544 -77.7156 177° South 497 572 43,000  Level Miami Center
09:46AM 29.5167 -77.7072 177° South 503 579 43,000  Level Miami Center
09:47AM 29.3769 -77.7014 178° South 497 572 43,000  Level Miami Center
09:48AM 29.2394 -77.6908 176° South 502 578 43,000  Level Miami Center
09:49AM 29.1058 -77.6853 178° South 494 568 43,000  Level Miami Center
09:50AM 28.9661 -77.6794 178° South 494 568 43,000  Level Miami Center
09:51AM 28.8264 -77.6714 177° South 501 577 43,000  Level Miami Center
09:52AM 28.6992 -77.6656 178° South 490 564 43,000 -60 Level Miami Center
09:53AM 28.5572 -77.6575 177° South 501 577 42,900 -360 Descending Miami Center
09:54AM 28.4153 -77.6494 177° South 500 575 42,300 -900 Descending Miami Center
09:55AM 28.2817 -77.6439 178° South 493 567 41,200 -1,500 Descending Miami Center
09:56AM 28.1439 -77.6358 177° South 498 573 39,400 -1,800 Descending Miami Center
09:57AM 28.0019 -77.6300 178° South 498 573 37,600 -1,680 Descending Miami Center
09:58AM 27.8683 -77.6222 177° South 493 567 36,100 -1,620 Descending Miami Center
09:59AM 27.7286 -77.6142 177° South 493 567 34,400 -1,080 Descending Miami Center
10:00AM 27.5867 -77.6017 176° South 502 578 34,000 -240 Descending Miami Center
10:01AM 27.4447 -77.5961 178° South 507 583 34,000  Level Miami Center
10:02AM 27.3047 -77.5881 177° South 512 589 34,000  Level Miami Center
10:03AM 27.1669 -77.5803 177° South 502 578 34,000 -360 Level Miami Center
10:04AM 27.0250 -77.5817 180° South 502 578 33,300 -1,440 Descending Miami Center
10:05AM 26.8869 -77.5669 175° South 507 583 31,200 -2,100 Descending Miami Center
10:06AM 26.7514 -77.5544 175° South 496 571 29,200 -1,980 Descending Miami Center
10:07AM 26.6261 -77.5514 179° South 477 549 27,300 -1,920 Descending Miami Center
10:08AM 26.5028 -77.5436 177° South 458 527 25,400 -1,860 Descending Miami Center
10:09AM 26.3817 -77.5292 174° South 448 516 23,600 -1,860 Descending Miami Center
10:10AM 26.2606 -77.5261 179° South 442 509 21,700 -1,860 Descending Miami Center
10:11AM 26.1414 -77.5183 177° South 442 509 19,900 -1,800 Descending Miami Center
10:12AM 26.0286 -77.5108 177° South 424 488 18,100 -1,740 Descending Miami Center
10:13AM 25.9158 -77.5011 176° South 419 482 16,500 -1,620 Descending Miami Center
10:14AM 25.8092 -77.4981 179° South 400 460 14,900 -1,560 Descending Miami Center
10:15AM 25.7172 -77.4908 176° South 363 418 13,400 -1,200 Descending Miami Center
10:16AM 25.6192 -77.4856 177° South 352 405 12,600 -840 Descending Miami Center